Time;durP1;ratioP1;P1;durP2;ratioP2;P2;SDS_P1;SDS_P2;PMS_P1;PMS_P2;Temp;Humidity;BMP_temperature;BMP_pressure;BME280_temperature;BME280_humidity;BME280_pressure;Samples;Min_cycle;Max_cycle;Signal;HPM_P1;HPM_P2
2021/11/29 00:00:54;;;;;;;0.75;0.75;;;4.90;99.90;;;;;;6155062;23;20056;-74
2021/11/29 00:03:20;;;;;;;1.00;0.80;;;4.90;99.90;;;;;;6155052;23;20005;-74
2021/11/29 00:05:46;;;;;;;0.73;0.63;;;4.90;99.90;;;;;;6155131;23;20452;-74
2021/11/29 00:08:12;;;;;;;1.67;0.75;;;5.00;99.90;;;;;;6128251;23;20341;-74
2021/11/29 00:10:38;;;;;;;1.95;1.00;;;5.00;99.90;;;;;;6154930;23;20025;-74
2021/11/29 00:13:07;;;;;;;0.57;0.57;;;5.10;99.90;;;;;;6155121;23;20076;-74
2021/11/29 00:15:33;;;;;;;0.50;0.50;;;5.10;99.90;;;;;;6128878;23;20002;-74
2021/11/29 00:18:01;;;;;;;0.70;0.70;;;5.20;99.90;;;;;;6154767;23;20025;-74
2021/11/29 00:20:28;;;;;;;0.65;0.65;;;5.20;99.90;;;;;;6128550;23;20013;-74
2021/11/29 00:22:54;;;;;;;0.63;0.63;;;5.30;99.90;;;;;;6155060;23;20333;-74
2021/11/29 00:25:20;;;;;;;0.60;0.60;;;5.20;99.90;;;;;;6154873;23;20008;-74
2021/11/29 00:27:46;;;;;;;0.70;0.70;;;5.20;99.90;;;;;;6128684;23;20016;-75
2021/11/29 00:30:14;;;;;;;0.60;0.50;;;5.30;99.90;;;;;;6154700;23;20084;-74
2021/11/29 00:32:41;;;;;;;0.80;0.80;;;5.30;99.90;;;;;;6154799;23;20035;-74
2021/11/29 00:35:08;;;;;;;0.50;0.50;;;5.40;99.90;;;;;;6128445;23;20001;-74
2021/11/29 00:37:35;;;;;;;0.98;0.65;;;5.40;99.90;;;;;;6154826;23;19998;-74
2021/11/29 00:40:01;;;;;;;0.80;0.52;;;5.40;99.90;;;;;;6128400;23;20366;-74
2021/11/29 00:42:26;;;;;;;0.65;0.65;;;5.40;99.90;;;;;;6154629;23;20453;-74
2021/11/29 00:44:52;;;;;;;0.70;0.70;;;5.40;99.90;;;;;;6154545;23;20008;-74
2021/11/29 00:47:18;;;;;;;0.63;0.63;;;5.40;99.90;;;;;;6154783;23;20334;-74
2021/11/29 00:49:44;;;;;;;0.70;0.70;;;5.50;99.90;;;;;;6154227;23;20080;-74
2021/11/29 00:52:10;;;;;;;0.50;0.50;;;5.50;99.90;;;;;;6154726;23;20446;-74
2021/11/29 00:54:36;;;;;;;0.68;0.68;;;5.50;99.90;;;;;;6154666;23;20002;-74
2021/11/29 00:57:02;;;;;;;0.57;0.57;;;5.50;99.90;;;;;;6154508;23;20006;-74
2021/11/29 00:59:28;;;;;;;0.55;0.55;;;5.50;99.90;;;;;;6154509;23;20083;-74
2021/11/29 01:01:54;;;;;;;0.95;0.70;;;5.60;99.90;;;;;;6154415;23;20442;-74
2021/11/29 01:04:20;;;;;;;0.60;0.60;;;5.60;99.90;;;;;;6154463;23;20001;-74
2021/11/29 01:06:46;;;;;;;0.95;0.70;;;5.50;99.90;;;;;;6128456;23;20441;-74
2021/11/29 01:09:11;;;;;;;0.80;0.80;;;5.60;99.90;;;;;;6128380;23;20342;-74
2021/11/29 01:11:37;;;;;;;0.45;0.45;;;5.60;99.90;;;;;;6128038;23;20013;-74
2021/11/29 01:14:03;;;;;;;0.40;0.40;;;5.60;99.90;;;;;;6154546;23;20048;-74
2021/11/29 01:16:29;;;;;;;0.38;0.38;;;5.60;99.90;;;;;;6154275;23;20002;-74
2021/11/29 01:18:55;;;;;;;0.60;0.60;;;5.60;99.90;;;;;;6154197;23;20005;-74
2021/11/29 01:21:20;;;;;;;0.70;0.70;;;5.60;99.90;;;;;;6128008;23;20005;-74
2021/11/29 01:23:46;;;;;;;0.70;0.70;;;5.60;99.90;;;;;;6154164;23;20005;-74
2021/11/29 01:26:12;;;;;;;0.63;0.40;;;5.60;99.90;;;;;;6154205;23;20036;-74
2021/11/29 01:28:39;;;;;;;0.60;0.60;;;5.70;99.90;;;;;;6154111;23;20433;-74
2021/11/29 01:31:06;;;;;;;0.93;0.60;;;5.70;99.90;;;;;;6154183;23;20025;-74
2021/11/29 01:33:32;;;;;;;0.60;0.60;;;5.80;99.90;;;;;;6127927;23;20008;-74
2021/11/29 01:35:58;;;;;;;0.60;0.60;;;5.80;99.90;;;;;;6154449;23;20024;-74
2021/11/29 01:38:27;;;;;;;0.57;0.50;;;5.90;99.90;;;;;;6154035;23;20441;-74
2021/11/29 01:40:52;;;;;;;0.52;0.52;;;5.90;99.90;;;;;;6154162;23;20005;-74
2021/11/29 01:43:20;;;;;;;0.70;0.70;;;5.90;99.90;;;;;;6154150;23;20438;-74
2021/11/29 01:45:52;;;;;;;0.60;0.60;;;5.90;99.70;;;;;;6128030;23;20096;-74
2021/11/29 01:48:22;;;;;;;2.35;0.63;;;6.00;99.20;;;;;;6153983;23;20024;-74
2021/11/29 01:50:52;;;;;;;0.50;0.50;;;6.00;99.90;;;;;;6154184;23;20385;-74
2021/11/29 01:53:19;;;;;;;2.63;2.42;;;6.00;99.90;;;;;;6154090;23;20133;-74
2021/11/29 01:55:46;;;;;;;6.03;4.68;;;5.90;99.90;;;;;;6153944;23;20001;-74
2021/11/29 01:58:12;;;;;;;8.50;6.63;;;5.60;99.90;;;;;;6127490;23;20005;-74
2021/11/29 02:00:45;;;;;;;10.52;7.05;;;5.50;99.90;;;;;;6127898;23;20005;-74
2021/11/29 02:03:12;;;;;;;7.63;6.18;;;5.30;99.90;;;;;;6154120;23;20445;-74
2021/11/29 02:05:38;;;;;;;6.75;5.45;;;5.20;99.90;;;;;;6153728;23;19998;-74
2021/11/29 02:08:05;;;;;;;7.47;5.72;;;5.20;99.90;;;;;;6153669;23;20300;-74
2021/11/29 02:10:32;;;;;;;9.70;5.45;;;5.20;99.90;;;;;;6154026;23;20002;-74
2021/11/29 02:12:57;;;;;;;7.50;5.93;;;5.20;99.90;;;;;;6128036;23;20013;-74
2021/11/29 02:15:25;;;;;;;8.23;6.63;;;5.10;99.90;;;;;;6153865;23;20162;-75
2021/11/29 02:17:52;;;;;;;10.48;7.20;;;5.10;99.90;;;;;;6127607;23;20005;-74
2021/11/29 02:20:19;;;;;;;13.82;8.85;;;5.10;99.90;;;;;;6154023;23;20311;-74
2021/11/29 02:22:46;;;;;;;16.23;9.40;;;4.90;99.90;;;;;;6153676;23;20024;-74
2021/11/29 02:25:15;;;;;;;15.80;9.88;;;4.90;99.90;;;;;;6153679;23;20024;-74
2021/11/29 02:27:44;;;;;;;17.38;10.75;;;4.80;99.90;;;;;;6127573;23;20362;-74
2021/11/29 02:30:11;;;;;;;18.98;11.10;;;4.80;99.90;;;;;;6153612;23;20028;-74
2021/11/29 02:32:38;;;;;;;15.52;10.88;;;4.80;99.90;;;;;;6153714;23;20009;-74
2021/11/29 02:35:04;;;;;;;20.83;12.18;;;4.70;99.90;;;;;;6127469;23;20161;-74
2021/11/29 02:37:30;;;;;;;19.48;12.55;;;4.70;99.90;;;;;;6127488;23;20009;-74
2021/11/29 02:39:57;;;;;;;18.80;11.95;;;4.50;99.90;;;;;;6153588;23;20021;-74
2021/11/29 02:42:23;;;;;;;20.00;12.50;;;4.50;99.90;;;;;;6153691;23;20005;-74
2021/11/29 02:44:49;;;;;;;19.70;11.77;;;4.60;99.90;;;;;;6153621;23;20009;-74
2021/11/29 02:47:15;;;;;;;21.13;12.68;;;4.60;99.90;;;;;;6153846;23;20448;-75
2021/11/29 02:49:41;;;;;;;23.35;12.60;;;4.60;99.90;;;;;;6153524;23;20005;-74
2021/11/29 02:52:10;;;;;;;19.42;12.60;;;4.50;99.90;;;;;;6127396;23;20036;-75
2021/11/29 02:54:43;;;;;;;20.80;13.18;;;4.50;99.90;;;;;;6153555;23;20001;-74
2021/11/29 02:57:13;;;;;;;22.10;13.48;;;4.50;99.90;;;;;;6153559;23;20028;-74
2021/11/29 02:59:40;;;;;;;22.58;13.65;;;4.50;99.90;;;;;;6153532;23;20002;-75
2021/11/29 03:02:09;;;;;;;27.95;15.68;;;4.40;99.90;;;;;;6127640;23;20013;-74
2021/11/29 03:04:36;;;;;;;22.75;13.80;;;4.40;99.90;;;;;;6153743;23;20448;-74
2021/11/29 03:07:03;;;;;;;23.60;14.00;;;4.50;99.90;;;;;;6153506;23;20006;-74
2021/11/29 03:09:30;;;;;;;19.65;13.23;;;4.60;99.90;;;;;;6153413;23;20009;-74
2021/11/29 03:11:57;;;;;;;25.42;15.07;;;4.60;99.90;;;;;;6154955;23;20382;-75
2021/11/29 03:14:23;;;;;;;21.17;13.18;;;4.70;99.90;;;;;;6129316;23;20002;-74
2021/11/29 03:16:53;;;;;;;21.92;13.75;;;4.60;99.90;;;;;;6155445;23;20009;-74
2021/11/29 03:19:18;;;;;;;21.50;13.48;;;4.60;99.90;;;;;;6155379;23;20079;-74
2021/11/29 03:21:44;;;;;;;21.38;13.65;;;4.60;99.90;;;;;;6155643;23;20441;-74
2021/11/29 03:24:10;;;;;;;23.60;14.65;;;4.60;99.90;;;;;;6129292;23;20345;-75
2021/11/29 03:26:38;;;;;;;21.30;13.27;;;4.60;99.90;;;;;;6155301;23;20053;-74
2021/11/29 03:29:07;;;;;;;22.08;13.68;;;4.60;99.90;;;;;;6129081;23;20033;-74
2021/11/29 03:31:33;;;;;;;22.63;14.38;;;4.60;99.90;;;;;;6155316;23;20006;-75
2021/11/29 03:34:01;;;;;;;20.40;13.50;;;4.60;99.90;;;;;;6155202;23;19998;-74
2021/11/29 03:36:31;;;;;;;20.60;13.32;;;4.60;99.90;;;;;;6155294;23;19998;-74
2021/11/29 03:38:58;;;;;;;20.52;13.70;;;4.60;99.90;;;;;;6128808;23;20024;-74
2021/11/29 03:41:25;;;;;;;20.90;12.63;;;4.70;99.90;;;;;;6155423;23;20009;-74
2021/11/29 03:43:51;;;;;;;18.77;13.00;;;4.70;99.90;;;;;;6155240;23;20005;-74
2021/11/29 03:46:17;;;;;;;19.10;12.52;;;4.70;99.90;;;;;;6155127;23;20006;-74
2021/11/29 03:48:43;;;;;;;21.83;13.68;;;4.60;99.90;;;;;;6155037;23;20493;-74
2021/11/29 03:51:09;;;;;;;18.75;12.57;;;4.60;99.90;;;;;;6155003;23;20029;-74
2021/11/29 03:53:35;;;;;;;23.77;13.13;;;4.60;99.90;;;;;;6155070;23;20445;-74
2021/11/29 03:56:00;;;;;;;21.73;14.25;;;4.60;99.90;;;;;;6155343;23;19998;-74
2021/11/29 03:58:26;;;;;;;20.80;13.65;;;4.60;99.90;;;;;;6154904;23;20002;-74
2021/11/29 04:00:53;;;;;;;20.77;13.35;;;4.60;99.90;;;;;;6154967;23;20069;-74
2021/11/29 04:03:19;;;;;;;22.85;13.95;;;4.60;99.90;;;;;;6155127;23;20438;-74
2021/11/29 04:05:45;;;;;;;21.23;13.30;;;4.60;99.90;;;;;;6128581;23;20029;-75
2021/11/29 04:08:11;;;;;;;21.42;13.07;;;4.50;99.90;;;;;;6128677;23;20311;-75
2021/11/29 04:10:36;;;;;;;20.73;14.20;;;4.50;99.90;;;;;;6128883;23;20005;-74
2021/11/29 04:13:02;;;;;;;19.35;13.48;;;4.50;99.90;;;;;;6128533;23;20333;-74
2021/11/29 04:15:28;;;;;;;22.38;13.20;;;4.50;99.90;;;;;;6154973;23;20001;-74
2021/11/29 04:17:54;;;;;;;23.67;14.93;;;4.40;99.90;;;;;;6128887;23;20402;-74
2021/11/29 04:20:21;;;;;;;21.02;13.95;;;4.40;99.90;;;;;;6128766;23;20351;-74
2021/11/29 04:22:47;;;;;;;21.67;13.90;;;4.40;99.90;;;;;;6128576;23;20464;-74
2021/11/29 04:25:19;;;;;;;22.95;12.52;;;4.40;99.90;;;;;;6154893;23;20068;-74
2021/11/29 04:27:46;;;;;;;18.88;11.90;;;4.40;99.90;;;;;;6154886;23;20001;-74
2021/11/29 04:30:19;;;;;;;19.83;12.48;;;4.40;99.90;;;;;;6128479;23;20064;-75
2021/11/29 04:32:47;;;;;;;20.98;12.98;;;4.40;99.90;;;;;;6154719;23;19998;-75
2021/11/29 04:35:14;;;;;;;20.48;12.82;;;4.40;99.90;;;;;;6154698;23;20024;-74
2021/11/29 04:37:40;;;;;;;22.88;13.77;;;4.40;99.90;;;;;;6154530;23;20428;-74
2021/11/29 04:40:07;;;;;;;19.13;12.98;;;4.40;99.90;;;;;;6154662;23;20021;-74
2021/11/29 04:42:33;;;;;;;16.17;12.02;;;4.40;99.90;;;;;;6154612;23;20460;-74
2021/11/29 04:44:58;;;;;;;18.70;12.07;;;4.40;99.90;;;;;;6128208;23;20005;-74
2021/11/29 04:47:24;;;;;;;24.55;13.93;;;4.40;99.90;;;;;;6154815;23;20076;-74
2021/11/29 04:49:50;;;;;;;21.05;12.77;;;4.40;99.90;;;;;;6154288;23;20029;-74
2021/11/29 04:52:16;;;;;;;21.50;13.43;;;4.30;99.90;;;;;;6154532;23;20005;-74
2021/11/29 04:54:42;;;;;;;17.80;11.93;;;4.40;99.90;;;;;;6154693;23;19997;-74
2021/11/29 04:57:08;;;;;;;19.75;12.73;;;4.40;99.90;;;;;;6154405;23;20209;-75
2021/11/29 04:59:34;;;;;;;20.63;13.18;;;4.40;99.90;;;;;;6154226;23;20010;-74
2021/11/29 05:02:01;;;;;;;20.40;13.15;;;4.40;99.90;;;;;;6154616;23;20008;-74
2021/11/29 05:04:28;;;;;;;19.40;12.27;;;4.40;99.90;;;;;;6154316;23;20338;-74
2021/11/29 05:06:54;;;;;;;18.17;12.38;;;4.40;99.90;;;;;;6128192;23;20010;-75
2021/11/29 05:09:19;;;;;;;17.00;11.90;;;4.40;99.90;;;;;;6154409;23;20006;-74
2021/11/29 05:11:45;;;;;;;19.02;12.73;;;4.40;99.90;;;;;;6154356;23;20319;-75
2021/11/29 05:14:11;;;;;;;20.63;13.80;;;4.30;99.90;;;;;;6154208;23;20359;-74
2021/11/29 05:16:38;;;;;;;18.70;12.55;;;4.30;99.90;;;;;;6128284;23;20006;-74
2021/11/29 05:19:05;;;;;;;18.98;12.27;;;4.30;99.90;;;;;;6154180;23;20384;-74
2021/11/29 05:21:30;;;;;;;20.23;12.85;;;4.30;99.90;;;;;;6154190;23;20028;-75
2021/11/29 05:23:56;;;;;;;18.52;12.27;;;4.30;99.90;;;;;;6154344;23;20441;-74
2021/11/29 05:26:25;;;;;;;21.65;12.68;;;4.30;99.90;;;;;;6128018;23;20006;-74
2021/11/29 05:28:52;;;;;;;19.17;13.07;;;4.20;99.90;;;;;;6153930;23;20009;-74
2021/11/29 05:31:19;;;;;;;23.67;13.40;;;4.20;99.90;;;;;;6154118;23;20334;-74
2021/11/29 05:33:45;;;;;;;19.50;12.32;;;4.20;99.90;;;;;;6154032;23;20108;-74
2021/11/29 05:36:11;;;;;;;19.00;12.10;;;4.30;99.90;;;;;;6127680;23;20438;-74
2021/11/29 05:38:37;;;;;;;17.83;11.82;;;4.20;99.90;;;;;;6153764;23;20068;-74
2021/11/29 05:41:03;;;;;;;16.38;11.13;;;4.20;99.90;;;;;;6154256;23;20005;-74
2021/11/29 05:43:29;;;;;;;16.10;11.55;;;4.10;99.90;;;;;;6154002;23;20001;-74
2021/11/29 05:45:57;;;;;;;16.55;10.90;;;4.20;99.90;;;;;;6154138;23;20088;-74
2021/11/29 05:48:24;;;;;;;10.95;8.30;;;4.10;99.90;;;;;;6126819;23;20426;-74
2021/11/29 05:50:53;;;;;;;11.43;8.50;;;4.10;99.90;;;;;;6154041;23;20446;-74
2021/11/29 05:53:18;;;;;;;11.68;9.27;;;4.20;99.90;;;;;;6127794;23;20009;-74
2021/11/29 05:55:45;;;;;;;14.45;8.45;;;4.10;99.90;;;;;;6153947;23;20001;-75
2021/11/29 05:58:11;;;;;;;13.20;9.25;;;4.00;99.90;;;;;;6127909;23;20085;-75
2021/11/29 06:00:37;;;;;;;12.95;8.98;;;4.00;99.90;;;;;;6153932;23;20028;-75
2021/11/29 06:03:03;;;;;;;10.70;8.13;;;3.90;99.90;;;;;;6153895;23;20005;-75
2021/11/29 06:05:29;;;;;;;11.75;8.27;;;3.60;99.90;;;;;;6154004;23;20013;-75
2021/11/29 06:07:55;;;;;;;15.43;8.38;;;3.70;99.90;;;;;;6153715;23;20044;-75
2021/11/29 06:10:21;;;;;;;13.30;8.83;;;3.80;99.90;;;;;;6127226;23;20369;-75
2021/11/29 06:12:47;;;;;;;14.38;8.82;;;3.80;99.90;;;;;;6127821;23;20080;-75
2021/11/29 06:15:15;;;;;;;12.60;8.27;;;3.80;99.90;;;;;;6153846;23;19998;-74
2021/11/29 06:17:41;;;;;;;9.60;6.07;;;3.80;99.90;;;;;;6153604;23;20056;-75
2021/11/29 06:20:08;;;;;;;10.70;6.20;;;3.80;99.90;;;;;;6154003;23;20001;-75
2021/11/29 06:22:34;;;;;;;6.27;5.67;;;3.80;99.90;;;;;;6153900;23;20013;-75
2021/11/29 06:25:00;;;;;;;7.53;5.53;;;3.80;99.90;;;;;;6127568;23;20205;-74
2021/11/29 06:27:26;;;;;;;7.40;5.83;;;3.90;99.90;;;;;;6153937;23;20006;-74
2021/11/29 06:29:51;;;;;;;7.87;5.53;;;3.80;99.90;;;;;;6127436;23;20016;-75
2021/11/29 06:32:18;;;;;;;5.07;4.47;;;3.80;99.90;;;;;;6153717;23;20009;-75
2021/11/29 06:34:44;;;;;;;5.50;4.20;;;3.80;99.90;;;;;;6153904;23;20501;-75
2021/11/29 06:37:11;;;;;;;3.80;3.40;;;3.90;99.90;;;;;;6127715;23;20006;-75
2021/11/29 06:39:38;;;;;;;3.87;3.23;;;3.80;99.90;;;;;;6127161;23;20029;-74
2021/11/29 06:42:08;;;;;;;3.17;2.80;;;3.90;99.90;;;;;;6153804;23;20085;-75
2021/11/29 06:44:35;;;;;;;2.87;2.30;;;4.00;99.90;;;;;;6127705;23;20076;-75
2021/11/29 06:47:01;;;;;;;2.15;1.95;;;4.00;99.90;;;;;;6155976;23;20025;-75
2021/11/29 06:49:26;;;;;;;2.27;2.00;;;4.10;99.90;;;;;;6155443;23;20001;-74
2021/11/29 06:51:52;;;;;;;2.23;2.13;;;4.10;99.90;;;;;;6155814;23;20001;-75
2021/11/29 06:54:20;;;;;;;3.87;2.70;;;4.00;99.90;;;;;;6155815;23;19998;-74
2021/11/29 06:56:47;;;;;;;2.25;2.05;;;4.00;99.90;;;;;;6129841;23;20005;-75
2021/11/29 06:59:13;;;;;;;3.07;2.10;;;4.00;99.90;;;;;;6155492;23;20433;-75
2021/11/29 07:01:38;;;;;;;2.13;1.93;;;4.10;99.90;;;;;;6155839;23;20076;-75
2021/11/29 07:04:04;;;;;;;4.15;2.78;;;4.00;99.90;;;;;;6155708;23;20002;-74
2021/11/29 07:06:31;;;;;;;5.40;3.53;;;4.00;99.90;;;;;;6155660;23;20064;-75
2021/11/29 07:08:56;;;;;;;4.50;3.75;;;4.00;99.90;;;;;;6129434;23;20009;-75
2021/11/29 07:11:22;;;;;;;5.10;4.03;;;4.00;99.90;;;;;;6155391;23;20464;-74
2021/11/29 07:13:48;;;;;;;4.87;4.10;;;4.10;99.90;;;;;;6129538;23;20005;-74
2021/11/29 07:16:14;;;;;;;4.97;3.67;;;4.10;99.90;;;;;;6155649;23;20008;-75
2021/11/29 07:18:43;;;;;;;4.70;3.73;;;4.10;99.90;;;;;;6155637;23;20049;-74
2021/11/29 07:21:10;;;;;;;4.77;3.47;;;4.20;99.90;;;;;;6154633;23;20106;-74
2021/11/29 07:23:37;;;;;;;7.47;3.50;;;4.10;99.90;;;;;;6155624;23;20033;-74
2021/11/29 07:26:03;;;;;;;7.33;4.17;;;4.20;99.90;;;;;;6154922;23;20001;-75
2021/11/29 07:28:28;;;;;;;4.20;3.80;;;4.20;99.90;;;;;;6155361;23;20016;-75
2021/11/29 07:30:54;;;;;;;4.10;3.70;;;4.30;99.90;;;;;;6129272;23;20006;-74
2021/11/29 07:33:20;;;;;;;4.63;4.13;;;4.20;99.90;;;;;;6155172;23;20052;-74
2021/11/29 07:35:46;;;;;;;7.75;4.75;;;4.30;99.90;;;;;;6129353;23;20006;-74
2021/11/29 07:38:13;;;;;;;11.30;5.00;;;4.40;99.90;;;;;;6155024;23;20453;-74
2021/11/29 07:40:39;;;;;;;9.40;5.03;;;4.40;99.90;;;;;;6129132;23;20394;-74
2021/11/29 07:43:14;;;;;;;6.83;4.83;;;4.50;99.90;;;;;;6155179;23;20342;-74
2021/11/29 07:45:40;;;;;;;6.53;4.63;;;4.60;99.90;;;;;;6153342;23;20008;-81
2021/11/29 07:48:09;;;;;;;6.78;3.85;;;4.60;99.90;;;;;;6153448;23;20005;-81
2021/11/29 07:50:35;;;;;;;5.17;4.47;;;4.70;99.90;;;;;;6153610;23;20009;-81
2021/11/29 07:53:04;;;;;;;6.95;5.30;;;4.80;99.90;;;;;;6154816;23;20005;-81
2021/11/29 07:55:31;;;;;;;6.85;5.18;;;4.80;99.90;;;;;;6153242;23;20056;-81
2021/11/29 07:57:59;;;;;;;8.90;6.15;;;4.80;99.90;;;;;;6153744;23;19997;-81
2021/11/29 08:00:28;;;;;;;9.43;6.35;;;4.80;99.90;;;;;;6154669;23;20032;-81
2021/11/29 08:02:57;;;;;;;6.22;5.32;;;4.90;99.90;;;;;;6154878;23;20008;-81
2021/11/29 08:05:25;;;;;;;6.65;5.07;;;4.90;99.90;;;;;;6128453;23;20347;-81
2021/11/29 08:07:55;;;;;;;7.85;6.22;;;5.00;99.90;;;;;;6128870;23;20006;-81
2021/11/29 08:10:22;;;;;;;11.88;5.88;;;5.20;99.90;;;;;;6155245;23;20162;-82
2021/11/29 08:12:49;;;;;;;10.85;7.18;;;5.20;99.90;;;;;;6155230;23;20113;-82
2021/11/29 08:15:16;;;;;;;9.80;7.47;;;5.30;99.90;;;;;;6155210;23;20121;-81
2021/11/29 08:17:42;;;;;;;10.35;6.88;;;5.40;99.90;;;;;;6155056;23;20001;-82
2021/11/29 08:20:09;;;;;;;10.75;7.13;;;5.40;99.90;;;;;;6128834;23;20089;-81
2021/11/29 08:22:35;;;;;;;10.70;7.93;;;5.50;99.90;;;;;;6129096;23;20088;-81
2021/11/29 08:25:02;;;;;;;11.25;7.55;;;5.50;99.90;;;;;;6154870;23;20477;-81
2021/11/29 08:27:28;;;;;;;10.55;7.50;;;5.50;99.90;;;;;;6128755;23;20004;-81
2021/11/29 08:29:54;;;;;;;13.52;8.38;;;5.50;99.90;;;;;;6154623;23;20013;-81
2021/11/29 08:32:20;;;;;;;12.65;9.02;;;5.60;99.90;;;;;;6154968;23;20334;-81
2021/11/29 08:34:46;;;;;;;14.55;8.40;;;5.60;99.90;;;;;;6155153;23;20342;-81
2021/11/29 08:37:12;;;;;;;17.13;9.13;;;5.70;99.90;;;;;;6155800;23;20382;-81
2021/11/29 08:39:39;;;;;;;14.02;8.65;;;5.70;99.90;;;;;;6155552;23;20017;-81
2021/11/29 08:42:05;;;;;;;12.88;8.77;;;5.70;99.90;;;;;;6129601;23;20006;-81
2021/11/29 08:44:32;;;;;;;10.55;7.10;;;5.80;99.90;;;;;;6155635;23;20072;-82
2021/11/29 08:46:58;;;;;;;8.38;5.88;;;5.90;99.90;;;;;;6155609;23;20002;-81
2021/11/29 08:49:25;;;;;;;11.57;7.63;;;5.90;99.90;;;;;;6155611;23;20064;-82
2021/11/29 08:51:52;;;;;;;12.18;8.00;;;6.00;99.90;;;;;;6155768;23;20006;-81
2021/11/29 08:54:18;;;;;;;9.30;7.30;;;6.00;99.90;;;;;;6129136;23;20001;-82
2021/11/29 08:56:48;;;;;;;7.60;6.25;;;6.00;99.90;;;;;;6128814;23;20052;-81
2021/11/29 08:59:16;;;;;;;6.82;5.50;;;6.00;99.90;;;;;;6151591;23;20015;-82
2021/11/29 09:01:42;;;;;;;9.75;6.45;;;6.10;99.90;;;;;;6150056;23;20002;-82
2021/11/29 09:04:07;;;;;;;8.95;6.45;;;6.10;99.90;;;;;;6148961;23;20080;-82
2021/11/29 09:06:33;;;;;;;8.75;6.30;;;6.20;99.90;;;;;;6150219;23;20008;-82
2021/11/29 09:08:59;;;;;;;7.88;6.03;;;6.20;99.90;;;;;;6148809;23;20541;-82
2021/11/29 09:11:25;;;;;;;8.38;6.53;;;6.20;99.90;;;;;;6149144;23;20002;-82
2021/11/29 09:13:50;;;;;;;12.20;8.10;;;6.20;99.90;;;;;;6124002;23;20001;-82
2021/11/29 09:16:17;;;;;;;13.02;7.07;;;6.20;99.90;;;;;;6148861;23;20052;-83
2021/11/29 09:18:44;;;;;;;10.07;7.10;;;6.20;99.90;;;;;;6149194;23;20012;-81
2021/11/29 09:21:14;;;;;;;11.50;7.45;;;6.30;99.90;;;;;;6148603;23;20009;-84
2021/11/29 09:23:41;;;;;;;13.23;7.70;;;6.30;99.90;;;;;;6147994;23;20010;-82
2021/11/29 09:26:08;;;;;;;10.98;7.43;;;6.30;99.90;;;;;;6148960;23;20578;-81
2021/11/29 09:28:35;;;;;;;12.25;7.82;;;6.30;99.90;;;;;;6123325;23;20044;-81
2021/11/29 09:31:01;;;;;;;13.55;8.15;;;6.40;99.90;;;;;;6148247;23;19997;-84
2021/11/29 09:33:30;;;;;;;11.07;8.25;;;6.40;99.90;;;;;;6122972;23;20013;-84
2021/11/29 09:35:56;;;;;;;12.23;7.95;;;6.40;99.90;;;;;;6149240;23;20012;-83
2021/11/29 09:38:22;;;;;;;14.13;8.00;;;6.50;99.90;;;;;;6148060;23;20002;-82
2021/11/29 09:40:52;;;;;;;12.75;8.77;;;6.50;99.90;;;;;;6149708;23;20377;-83
2021/11/29 09:43:21;;;;;;;11.82;7.80;;;6.60;99.90;;;;;;6122046;23;20001;-82
2021/11/29 09:45:50;;;;;;;13.48;7.78;;;6.60;99.90;;;;;;6122344;23;20036;-82
2021/11/29 09:48:16;;;;;;;11.75;7.60;;;6.60;99.90;;;;;;6148917;23;20001;-82
2021/11/29 09:50:45;;;;;;;10.82;7.55;;;6.70;99.90;;;;;;6148783;23;20001;-84
2021/11/29 09:53:14;;;;;;;11.18;7.65;;;6.70;99.90;;;;;;6121567;23;20006;-83
2021/11/29 09:55:40;;;;;;;10.57;7.75;;;6.80;99.90;;;;;;6148698;23;20323;-83
2021/11/29 09:58:07;;;;;;;12.57;7.93;;;6.80;99.90;;;;;;6123014;23;20089;-80
2021/11/29 10:00:39;;;;;;;11.27;7.53;;;6.80;99.90;;;;;;6148381;23;20005;-82
2021/11/29 10:03:10;;;;;;;10.25;7.32;;;6.90;99.90;;;;;;6147877;23;20005;-81
2021/11/29 10:05:37;;;;;;;8.50;6.43;;;6.80;99.90;;;;;;6149097;23;20005;-82
2021/11/29 10:08:25;;;;;;;10.77;7.25;;;6.80;99.90;;;;;;6148269;23;20001;-81
2021/11/29 10:10:59;;;;;;;10.95;7.60;;;6.80;99.90;;;;;;6149318;23;20056;-83
2021/11/29 10:13:26;;;;;;;7.68;6.40;;;6.80;99.90;;;;;;6151375;23;20052;-81
2021/11/29 10:15:53;;;;;;;11.38;8.90;;;6.80;99.90;;;;;;6127846;23;20430;-81
2021/11/29 10:18:25;;;;;;;8.98;6.93;;;6.80;99.90;;;;;;6153782;23;19998;-81
2021/11/29 10:20:53;;;;;;;9.25;6.80;;;6.80;99.90;;;;;;6153828;23;19998;-83
2021/11/29 10:23:27;;;;;;;12.15;8.32;;;6.90;99.90;;;;;;6153833;23;20001;-82
2021/11/29 10:25:52;;;;;;;11.25;7.75;;;7.00;99.90;;;;;;6127237;23;20008;-81
2021/11/29 10:28:23;;;;;;;11.23;7.00;;;7.00;99.90;;;;;;6153593;23;20005;-82
2021/11/29 10:31:10;;;;;;;9.02;6.90;;;7.10;99.90;;;;;;6152317;23;20006;-82
2021/11/29 10:33:53;;;;;;;7.57;6.05;;;7.20;99.90;;;;;;6153735;23;19998;-81
2021/11/29 10:36:20;;;;;;;9.65;7.57;;;7.30;99.90;;;;;;6153806;23;19997;-81
2021/11/29 10:38:51;;;;;;;9.95;6.88;;;7.40;99.90;;;;;;6153753;23;20048;-82
2021/11/29 10:41:25;;;;;;;9.93;6.88;;;7.50;99.90;;;;;;6127905;23;20496;-82
2021/11/29 10:43:50;;;;;;;;;;;7.60;99.90;;;;;;6154443;23;20080;-81
2021/11/29 10:46:21;;;;;;;8.15;6.40;;;7.70;99.90;;;;;;6153675;23;20296;-81
2021/11/29 10:48:47;;;;;;;9.57;6.18;;;7.80;99.90;;;;;;6127375;23;20040;-82
2021/11/29 10:51:16;;;;;;;7.45;5.30;;;7.80;99.90;;;;;;6153643;23;19997;-83
2021/11/29 10:53:50;;;;;;;0.80;0.80;;;8.00;99.90;;;;;;6153662;23;20005;-82
2021/11/29 10:56:16;;;;;;;0.57;0.57;;;8.10;94.20;;;;;;6153734;23;19998;-82
2021/11/29 10:58:43;;;;;;;2.30;0.77;;;8.20;92.00;;;;;;6153734;23;20009;-82
2021/11/29 11:01:10;;;;;;;0.77;0.40;;;8.30;92.40;;;;;;6153875;23;20001;-83
2021/11/29 11:03:55;;;;;;;0.40;0.40;;;8.40;89.30;;;;;;6153431;23;20002;-82
2021/11/29 11:06:34;;;;;;;0.50;0.50;;;8.40;86.70;;;;;;6127512;23;20005;-83
2021/11/29 11:09:00;;;;;;;0.45;0.45;;;8.40;86.50;;;;;;6127480;23;20013;-82
2021/11/29 11:11:33;;;;;;;0.50;0.50;;;8.40;83.60;;;;;;6127362;23;20006;-82
2021/11/29 11:14:03;;;;;;;0.50;0.50;;;8.40;81.30;;;;;;6153867;23;20005;-83
2021/11/29 11:16:44;;;;;;;0.55;0.55;;;8.50;80.50;;;;;;6153444;23;20001;-82
2021/11/29 11:19:22;;;;;;;0.40;0.40;;;8.50;78.90;;;;;;6153461;23;20009;-82
2021/11/29 11:21:48;;;;;;;0.50;0.50;;;8.50;77.70;;;;;;6127459;23;20374;-82
2021/11/29 11:24:22;;;;;;;0.50;0.50;;;8.60;76.60;;;;;;6153528;23;20032;-82
2021/11/29 11:26:49;;;;;;;1.70;0.65;;;8.60;76.20;;;;;;6153562;23;20029;-82
2021/11/29 11:29:40;;;;;;;0.52;0.52;;;8.60;77.50;;;;;;6126926;23;20014;-81
2021/11/29 11:32:25;;;;;;;0.68;0.30;;;8.70;76.60;;;;;;6154248;23;20382;-82
2021/11/29 11:34:55;;;;;;;0.57;0.57;;;8.70;75.10;;;;;;6155295;23;20460;-82
2021/11/29 11:37:24;;;;;;;0.43;0.43;;;8.70;75.90;;;;;;6154896;23;20006;-82
2021/11/29 11:39:51;;;;;;;0.63;0.63;;;8.80;73.60;;;;;;6154888;23;20461;-82
2021/11/29 11:42:17;;;;;;;0.85;0.77;;;8.80;71.30;;;;;;6155403;23;20088;-82
2021/11/29 11:44:45;;;;;;;1.08;0.40;;;8.80;71.50;;;;;;6155420;23;20005;-82
2021/11/29 11:47:12;;;;;;;0.70;0.40;;;8.80;72.70;;;;;;6155082;23;20450;-82
2021/11/29 11:49:40;;;;;;;0.45;0.45;;;8.80;70.90;;;;;;6155030;23;20315;-81
2021/11/29 11:52:10;;;;;;;0.60;0.60;;;8.80;72.30;;;;;;6129125;23;20080;-82
2021/11/29 11:54:36;;;;;;;0.70;0.70;;;8.80;72.40;;;;;;6155377;23;20008;-83
2021/11/29 11:57:03;;;;;;;0.45;0.45;;;8.80;69.30;;;;;;6155260;23;20100;-83
2021/11/29 11:59:38;;;;;;;1.80;0.60;;;8.90;72.10;;;;;;6155054;23;20013;-82
2021/11/29 12:02:05;;;;;;;0.93;0.80;;;8.90;70.80;;;;;;6128753;23;20011;-82
2021/11/29 12:04:31;;;;;;;0.40;0.40;;;9.00;71.90;;;;;;6128856;23;20017;-82
2021/11/29 12:06:57;;;;;;;0.40;0.40;;;8.90;71.80;;;;;;6155015;23;20010;-81
2021/11/29 12:09:31;;;;;;;4.95;0.60;;;8.90;68.60;;;;;;6154824;23;20005;-81
2021/11/29 12:12:04;;;;;;;0.40;0.40;;;9.00;68.10;;;;;;6155235;23;19998;-82
2021/11/29 12:14:32;;;;;;;0.40;0.40;;;9.00;67.30;;;;;;6154982;23;20081;-81
2021/11/29 12:17:01;;;;;;;0.40;0.40;;;9.00;69.00;;;;;;6154802;23;19998;-82
2021/11/29 12:19:32;;;;;;;0.50;0.50;;;9.00;67.40;;;;;;6128791;23;20008;-82
2021/11/29 12:22:02;;;;;;;0.50;0.50;;;9.00;69.40;;;;;;6128878;23;20006;-82
2021/11/29 12:24:41;;;;;;;0.50;0.50;;;9.00;65.70;;;;;;6154713;23;20001;-82
2021/11/29 12:27:09;;;;;;;0.85;0.85;;;9.00;68.00;;;;;;6154739;23;20056;-82
2021/11/29 12:29:41;;;;;;;0.50;0.50;;;9.00;70.00;;;;;;6153571;23;20005;-82
2021/11/29 12:32:15;;;;;;;0.40;0.40;;;9.00;69.00;;;;;;6127366;23;20072;-82
2021/11/29 12:34:44;;;;;;;0.60;0.60;;;9.00;68.00;;;;;;6156522;23;20021;-83
2021/11/29 12:37:37;;;;;;;0.75;0.75;;;9.10;71.40;;;;;;6130105;23;20005;-82
2021/11/29 12:40:14;;;;;;;2.72;0.60;;;9.10;67.90;;;;;;6156250;23;20064;-82
2021/11/29 12:42:40;;;;;;;2.15;0.57;;;9.10;67.60;;;;;;6156275;23;20005;-82
2021/11/29 12:45:13;;;;;;;0.70;0.52;;;9.10;66.40;;;;;;6156348;23;20056;-81
2021/11/29 12:47:41;;;;;;;0.80;0.70;;;9.10;66.30;;;;;;6155942;23;20045;-82
2021/11/29 12:50:33;;;;;;;1.20;1.05;;;9.10;67.00;;;;;;6156245;23;20400;-82
2021/11/29 12:53:09;;;;;;;0.50;0.50;;;9.10;67.90;;;;;;6156116;23;20097;-81